createdAt,value
2019-05-20T00:03:03.133Z,98691.50
2019-05-20T00:06:09.133Z,98683.19
2019-05-20T00:09:15.022Z,98683.19
2019-05-20T00:12:20.743Z,98683.55
2019-05-20T00:15:26.412Z,98688.56
2019-05-20T00:18:32.170Z,98687.47
2019-05-20T00:21:37.940Z,98687.14
2019-05-20T00:24:43.681Z,98689.44
2019-05-20T00:27:49.527Z,98690.50
2019-05-20T00:30:55.231Z,98685.77
2019-05-20T00:34:00.914Z,98682.73
2019-05-20T00:37:09.963Z,98678.94
2019-05-20T00:40:15.866Z,98681.47
2019-05-20T00:43:21.576Z,98670.28
2019-05-20T00:46:27.259Z,98676.61
2019-05-20T00:49:33.107Z,98689.37
2019-05-20T00:52:38.926Z,98680.67
2019-05-20T00:55:44.702Z,98673.52
2019-05-20T00:58:50.414Z,98689.12
2019-05-20T01:01:56.085Z,98692.06
2019-05-20T01:05:01.775Z,98694.53
2019-05-20T01:08:07.465Z,98693.68
2019-05-20T01:11:13.187Z,98689.95
2019-05-20T01:14:18.917Z,98687.36
2019-05-20T01:17:24.663Z,98680.94
2019-05-20T01:20:30.383Z,98679.41
2019-05-20T01:23:36.037Z,98682.56
2019-05-20T01:26:41.743Z,98686.83
2019-05-20T01:29:47.494Z,98690.00
2019-05-20T01:32:53.169Z,98695.30
2019-05-20T01:35:58.908Z,98708.56
2019-05-20T01:39:05.416Z,98693.41
2019-05-20T01:42:11.196Z,98705.48
2019-05-20T01:45:18.055Z,98698.09
2019-05-20T01:48:23.744Z,98702.27
2019-05-20T01:51:29.410Z,98698.08
2019-05-20T01:54:35.070Z,98686.33
2019-05-20T01:57:40.791Z,98696.09
2019-05-20T02:00:46.541Z,98707.05
2019-05-20T02:03:52.274Z,98709.34
2019-05-20T02:07:01.344Z,98712.36
2019-05-20T02:10:07.589Z,98717.45
2019-05-20T02:13:13.329Z,98712.92
2019-05-20T02:16:19.683Z,98720.65
2019-05-20T02:19:25.354Z,98729.37
2019-05-20T02:22:31.077Z,98734.07
2019-05-20T02:25:36.897Z,98736.84
2019-05-20T02:28:44.438Z,98733.29
2019-05-20T02:31:50.204Z,98724.73
2019-05-20T02:34:57.443Z,98716.08
2019-05-20T02:38:03.454Z,98706.38
2019-05-20T02:41:09.349Z,98709.34
2019-05-20T02:44:17.589Z,98707.56
2019-05-20T02:47:30.894Z,98732.50
2019-05-20T02:50:39.322Z,98741.34
2019-05-20T02:53:50.530Z,98751.75
2019-05-20T02:56:57.486Z,98748.11
2019-05-20T03:00:03.325Z,98746.48
2019-05-20T03:03:10.747Z,98752.14
2019-05-20T03:06:16.931Z,98746.97
2019-05-20T03:09:22.607Z,98745.76
2019-05-20T03:12:28.420Z,98760.27
2019-05-20T03:15:34.116Z,98765.09
2019-05-20T03:18:39.824Z,98770.34
2019-05-20T03:21:45.479Z,98769.14
2019-05-20T03:24:51.220Z,98773.14
2019-05-20T03:27:56.906Z,98757.98
2019-05-20T03:31:02.646Z,98759.66
2019-05-20T03:34:08.487Z,98763.67
2019-05-20T03:37:14.136Z,98766.30
2019-05-20T03:40:19.841Z,98784.91
2019-05-20T03:43:25.563Z,98794.11
2019-05-20T03:46:31.334Z,98799.50
2019-05-20T03:49:37.009Z,98806.88
2019-05-20T03:52:42.741Z,98812.76
2019-05-20T03:55:48.418Z,98814.73
2019-05-20T03:58:54.111Z,98817.09
2019-05-20T04:01:59.876Z,98820.52
2019-05-20T04:05:05.883Z,98831.95
2019-05-20T04:08:11.829Z,98838.55
2019-05-20T04:11:17.535Z,98831.03
2019-05-20T04:14:23.306Z,98816.89
2019-05-20T04:17:28.969Z,98816.02
2019-05-20T04:20:34.904Z,98836.55
2019-05-20T04:23:41.003Z,98833.92
2019-05-20T04:26:47.139Z,98836.36
2019-05-20T04:29:52.820Z,98835.80
2019-05-20T04:32:58.604Z,98843.52
2019-05-20T04:36:04.372Z,98843.13
2019-05-20T04:39:10.043Z,98847.17
2019-05-20T04:42:15.726Z,98843.66
2019-05-20T04:45:21.544Z,98851.00
2019-05-20T04:48:27.204Z,98839.59
2019-05-20T04:51:32.919Z,98847.06
2019-05-20T04:54:38.626Z,98836.03
2019-05-20T04:57:44.294Z,98834.45
2019-05-20T05:00:57.532Z,98831.70
2019-05-20T05:04:03.195Z,98822.02
2019-05-20T05:07:08.981Z,98819.59
2019-05-20T05:10:15.192Z,98826.08
2019-05-20T05:13:21.751Z,98835.04
2019-05-20T05:16:27.596Z,98836.25
2019-05-20T05:19:33.549Z,98830.70
2019-05-20T05:22:39.316Z,98832.63
2019-05-20T05:25:45.273Z,98827.09
2019-05-20T05:28:51.949Z,98828.50
2019-05-20T05:31:57.779Z,98823.64
2019-05-20T05:35:03.455Z,98824.80
2019-05-20T05:38:09.349Z,98818.86
2019-05-20T05:41:15.101Z,98810.48
2019-05-20T05:44:20.787Z,98821.27
2019-05-20T05:47:26.484Z,98826.31
2019-05-20T05:50:36.749Z,98821.06
2019-05-20T05:53:42.149Z,98821.56
2019-05-20T05:56:47.889Z,98834.92
2019-05-20T05:59:53.707Z,98838.00
2019-05-20T06:02:59.365Z,98843.34
2019-05-20T06:06:12.275Z,98843.37
2019-05-20T06:09:12.653Z,98845.30
2019-05-20T06:12:18.335Z,98854.03
2019-05-20T06:15:24.875Z,98863.11
2019-05-20T06:18:30.538Z,98859.80
2019-05-20T06:21:36.272Z,98855.02
2019-05-20T06:24:41.931Z,98846.64
2019-05-20T06:27:47.658Z,98840.87
2019-05-20T06:30:53.321Z,98843.20
2019-05-20T06:33:59.246Z,98839.27
2019-05-20T06:37:07.524Z,98836.18
2019-05-20T06:40:13.617Z,98830.75
2019-05-20T06:43:19.380Z,98830.19
2019-05-20T06:46:27.963Z,98826.87
2019-05-20T06:49:33.632Z,98820.09
2019-05-20T06:52:39.335Z,98810.94
2019-05-20T06:55:45.081Z,98814.02
2019-05-20T06:58:50.813Z,98814.83
2019-05-20T07:01:56.821Z,98815.98
2019-05-20T07:05:03.671Z,98817.95
2019-05-20T07:08:09.339Z,98822.53
2019-05-20T07:11:15.073Z,98827.63
2019-05-20T07:14:20.901Z,98832.45
2019-05-20T07:17:29.548Z,98831.92
2019-05-20T07:20:50.187Z,98830.81
2019-05-20T07:23:57.243Z,98833.64
2019-05-20T07:27:02.977Z,98830.91
2019-05-20T07:30:09.121Z,98833.89
2019-05-20T07:33:14.863Z,98835.09
2019-05-20T07:36:25.945Z,98833.73
2019-05-20T07:39:31.680Z,98851.16
2019-05-20T07:42:37.413Z,98830.93
2019-05-20T07:45:43.902Z,98835.34
2019-05-20T07:48:50.492Z,98830.23
2019-05-20T07:51:57.196Z,98826.54
2019-05-20T07:55:03.868Z,98826.84
2019-05-20T07:58:11.018Z,98827.78
2019-05-20T08:01:17.236Z,98832.70
2019-05-20T08:04:23.455Z,98828.48
2019-05-20T08:07:49.875Z,98831.95
2019-05-20T08:10:36.971Z,98830.86
2019-05-20T08:13:42.844Z,98834.70
2019-05-20T08:16:48.530Z,98832.88
2019-05-20T08:19:54.219Z,98831.12
2019-05-20T08:22:59.954Z,98828.45
2019-05-20T08:26:05.709Z,98825.45
2019-05-20T08:29:11.403Z,98824.70
2019-05-20T08:32:17.058Z,98815.02
2019-05-20T08:35:25.241Z,98817.57
2019-05-20T08:38:30.921Z,98811.24
2019-05-20T08:41:36.830Z,98801.98
2019-05-20T08:44:42.690Z,98798.34
2019-05-20T08:47:50.187Z,98794.00
2019-05-20T08:50:55.987Z,98792.38
2019-05-20T08:54:03.360Z,98792.14
2019-05-20T08:57:09.092Z,98797.19
2019-05-20T09:00:23.207Z,98797.75
2019-05-20T09:03:30.485Z,98792.22
2019-05-20T09:06:36.469Z,98801.11
2019-05-20T09:09:42.287Z,98804.73
2019-05-20T09:12:48.077Z,98795.02
2019-05-20T09:15:54.835Z,98790.50
2019-05-20T09:19:00.512Z,98795.85
2019-05-20T09:22:06.236Z,98794.15
2019-05-20T09:25:14.189Z,98791.55
2019-05-20T09:28:20.443Z,98787.39
2019-05-20T09:31:26.534Z,98785.09
2019-05-20T09:34:32.569Z,98779.77
2019-05-20T09:37:39.503Z,98776.38
2019-05-20T09:40:47.791Z,98779.33
2019-05-20T09:43:53.532Z,98773.89
2019-05-20T09:46:59.246Z,98767.52
2019-05-20T09:50:05.972Z,98761.02
2019-05-20T09:53:11.829Z,98759.35
2019-05-20T09:56:17.627Z,98754.14
2019-05-20T09:59:23.465Z,98752.34
2019-05-20T10:02:34.507Z,98755.20
2019-05-20T10:05:37.632Z,98742.58
2019-05-20T10:08:45.289Z,98740.87
2019-05-20T10:11:51.643Z,98741.47
2019-05-20T10:14:57.385Z,98747.53
2019-05-20T10:18:03.277Z,98748.84
2019-05-20T10:21:09.071Z,98751.95
2019-05-20T10:24:14.768Z,98745.69
2019-05-20T10:27:20.621Z,98751.82
2019-05-20T10:30:26.494Z,98753.69
2019-05-20T10:33:32.216Z,98755.11
2019-05-20T10:36:37.880Z,98754.05
2019-05-20T10:39:43.656Z,98751.48
2019-05-20T10:42:49.470Z,98738.63
2019-05-20T10:45:55.234Z,98739.42
2019-05-20T10:49:02.135Z,98736.75
2019-05-20T10:52:07.900Z,98745.92
2019-05-20T10:55:13.716Z,98737.94
2019-05-20T10:58:19.527Z,98742.28
2019-05-20T11:01:25.266Z,98737.57
2019-05-20T11:04:30.959Z,98726.36
2019-05-20T11:07:36.867Z,98717.47
2019-05-20T11:10:42.740Z,98718.43
2019-05-20T11:13:48.461Z,98716.59
2019-05-20T11:16:54.168Z,98706.20
2019-05-20T11:19:59.866Z,98696.61
2019-05-20T11:23:05.621Z,98702.34
2019-05-20T11:26:11.412Z,98702.73
2019-05-20T11:29:17.121Z,98703.92
2019-05-20T11:32:22.860Z,98686.09
2019-05-20T11:35:28.663Z,98689.50
2019-05-20T11:38:34.587Z,98692.41
2019-05-20T11:41:52.613Z,98683.07
2019-05-20T11:44:47.876Z,98677.47
2019-05-20T11:47:53.605Z,98667.80
2019-05-20T11:50:59.284Z,98654.36
2019-05-20T11:54:04.995Z,98654.72
2019-05-20T11:57:10.672Z,98655.49
2019-05-20T12:00:17.089Z,98636.37
2019-05-20T12:03:22.775Z,98629.40
2019-05-20T12:06:28.489Z,98633.79
2019-05-20T12:09:48.300Z,98631.38
2019-05-20T12:12:41.515Z,98618.08
2019-05-20T12:15:47.217Z,98613.77
2019-05-20T12:18:52.934Z,98613.86
2019-05-20T12:21:58.665Z,98602.79
2019-05-20T12:25:04.647Z,98601.63
2019-05-20T12:28:10.695Z,98599.21
2019-05-20T12:31:16.478Z,98595.08
2019-05-20T12:34:22.309Z,98589.48
2019-05-20T12:37:27.975Z,98583.14
2019-05-20T12:40:33.879Z,98578.52
2019-05-20T12:43:39.527Z,98579.19
2019-05-20T12:46:45.246Z,98577.78
2019-05-20T12:49:51.087Z,98578.13
2019-05-20T12:52:56.781Z,98568.84
2019-05-20T12:56:02.536Z,98572.07
2019-05-20T12:59:08.273Z,98575.09
2019-05-20T13:02:17.405Z,98571.66
2019-05-20T13:05:23.297Z,98571.41
2019-05-20T13:08:29.543Z,98562.69
2019-05-20T13:11:38.962Z,98566.38
2019-05-20T13:14:44.678Z,98574.13
2019-05-20T13:17:50.999Z,98569.63
2019-05-20T13:20:56.776Z,98578.97
2019-05-20T13:24:02.448Z,98573.13
2019-05-20T13:27:08.267Z,98570.08
2019-05-20T13:30:14.691Z,98573.40
2019-05-20T13:33:20.355Z,98561.11
2019-05-20T13:36:26.058Z,98548.66
2019-05-20T13:39:31.760Z,98554.95
2019-05-20T13:42:37.613Z,98550.42
2019-05-20T13:45:43.383Z,98543.63
2019-05-20T13:48:50.421Z,98540.13
2019-05-20T13:51:56.102Z,98543.82
2019-05-20T13:55:01.816Z,98537.96
2019-05-20T13:58:07.595Z,98543.86
2019-05-20T14:01:13.335Z,98550.86
2019-05-20T14:04:18.979Z,98550.73
2019-05-20T14:07:24.781Z,98553.84
2019-05-20T14:10:30.482Z,98556.47
2019-05-20T14:13:36.163Z,98554.06
2019-05-20T14:16:41.860Z,98551.02
2019-05-20T14:19:47.632Z,98555.23
2019-05-20T14:22:56.388Z,98562.02
2019-05-20T14:26:02.219Z,98567.27
2019-05-20T14:29:08.007Z,98572.58
2019-05-20T14:32:13.696Z,98574.05
2019-05-20T14:35:19.576Z,98584.77
2019-05-20T14:38:25.419Z,98583.31
2019-05-20T14:41:31.167Z,98606.70
2019-05-20T14:44:36.840Z,98625.16
2019-05-20T14:47:43.219Z,98635.16
2019-05-20T14:50:51.009Z,98641.66
2019-05-20T14:53:58.499Z,98659.03
2019-05-20T14:57:05.980Z,98666.25
2019-05-20T15:00:14.430Z,98665.50
2019-05-20T15:03:21.577Z,98665.52
2019-05-20T15:06:29.247Z,98672.19
2019-05-20T15:09:36.049Z,98684.56
2019-05-20T15:12:42.652Z,98703.48
2019-05-20T15:15:48.817Z,98718.25
2019-05-20T15:18:56.082Z,98714.01
2019-05-20T15:22:04.118Z,98718.41
2019-05-20T15:25:11.791Z,98706.91
2019-05-20T15:28:18.096Z,98733.13
2019-05-20T15:31:24.444Z,98741.06
2019-05-20T15:34:32.189Z,98758.34
2019-05-20T15:37:40.344Z,98776.63
2019-05-20T15:40:46.877Z,98790.80
2019-05-20T15:43:53.868Z,98801.55
2019-05-20T15:47:00.791Z,98808.78
2019-05-20T15:50:10.012Z,98812.13
2019-05-20T15:53:42.178Z,98815.23
2019-05-20T15:56:49.622Z,98821.27
2019-05-20T15:59:55.447Z,98831.78
2019-05-20T16:03:01.305Z,98794.16
2019-05-20T16:06:07.147Z,98771.50
2019-05-20T16:09:16.868Z,98798.63
2019-05-20T16:12:20.384Z,98817.09
2019-05-20T16:15:26.040Z,98818.85
2019-05-20T16:18:31.701Z,98831.30
2019-05-20T16:21:37.505Z,98837.34
2019-05-20T16:24:45.328Z,98845.45
2019-05-20T16:27:50.714Z,98831.69
2019-05-20T16:30:56.373Z,98845.53
2019-05-20T16:34:02.148Z,98840.12
2019-05-20T16:37:07.915Z,98841.92
2019-05-20T16:40:14.214Z,98849.17
2019-05-20T16:43:20.034Z,98852.16
2019-05-20T16:46:25.705Z,98848.30
2019-05-20T16:49:31.426Z,98856.00
2019-05-20T16:52:37.151Z,98845.61
2019-05-20T16:55:42.885Z,98863.69
2019-05-20T16:58:48.546Z,98856.90
2019-05-20T17:01:54.247Z,98856.84
2019-05-20T17:05:00.180Z,98853.40
2019-05-20T17:08:06.283Z,98864.20
2019-05-20T17:11:12.034Z,98862.23
2019-05-20T17:14:21.383Z,98879.89
2019-05-20T17:17:27.069Z,98877.38
2019-05-20T17:20:32.760Z,98870.00
2019-05-20T17:23:38.423Z,98875.99
2019-05-20T17:26:44.182Z,98880.77
2019-05-20T17:29:50.237Z,98887.16
2019-05-20T17:32:55.919Z,98895.51
2019-05-20T17:36:01.706Z,98911.52
2019-05-20T17:39:08.528Z,98910.41
2019-05-20T17:42:14.291Z,98911.41
2019-05-20T17:45:20.208Z,98914.72
2019-05-20T17:48:26.091Z,98914.69
2019-05-20T17:51:33.318Z,98922.58
2019-05-20T17:54:39.088Z,98930.08
2019-05-20T17:57:44.782Z,98934.14
2019-05-20T18:00:50.645Z,98936.25
2019-05-20T18:03:56.380Z,98941.79
2019-05-20T18:07:02.149Z,98951.73
2019-05-20T18:10:08.968Z,98948.97
2019-05-20T18:13:14.750Z,98951.81
2019-05-20T18:16:20.516Z,98952.48
2019-05-20T18:19:26.180Z,98961.95
2019-05-20T18:22:31.952Z,98970.69
2019-05-20T18:25:37.659Z,98968.47
2019-05-20T18:28:43.325Z,98973.23
2019-05-20T18:31:49.108Z,98970.71
2019-05-20T18:34:54.868Z,98965.34
2019-05-20T18:38:00.707Z,98971.90
2019-05-20T18:41:06.497Z,98981.41
2019-05-20T18:44:13.383Z,98987.77
2019-05-20T18:47:19.171Z,98979.03
2019-05-20T18:50:24.882Z,98982.63
2019-05-20T18:53:30.670Z,98985.16
2019-05-20T18:56:36.440Z,98986.73
2019-05-20T18:59:42.242Z,98979.34
2019-05-20T19:02:47.892Z,98978.65
2019-05-20T19:05:53.564Z,98984.70
2019-05-20T19:08:59.232Z,98989.13
2019-05-20T19:12:05.074Z,98998.00
2019-05-20T19:15:12.139Z,99005.15
2019-05-20T19:18:17.900Z,99023.34
2019-05-20T19:24:27.858Z,99022.10
2019-05-20T19:27:33.567Z,99032.38
2019-05-20T19:30:39.233Z,99031.95
2019-05-20T19:33:44.967Z,99034.59
2019-05-20T19:36:50.654Z,99036.46
2019-05-20T19:40:05.956Z,99039.50
2019-05-20T19:43:13.242Z,99041.04
2019-05-20T19:46:18.962Z,99063.31
2019-05-20T19:49:26.245Z,99057.05
2019-05-20T19:52:32.131Z,99052.47
2019-05-20T19:55:37.751Z,99040.47
2019-05-20T19:58:46.461Z,99045.91
2019-05-20T20:01:56.109Z,99076.36
2019-05-20T20:05:11.908Z,99087.81
2019-05-20T20:08:09.743Z,99073.28
2019-05-20T20:11:15.512Z,99075.10
2019-05-20T20:14:21.221Z,99073.28
2019-05-20T20:17:27.019Z,99073.58
2019-05-20T20:20:32.833Z,99074.87
2019-05-20T20:23:38.634Z,99081.17
2019-05-20T20:26:44.436Z,99082.55
2019-05-20T20:29:50.138Z,99071.44
2019-05-20T20:32:55.828Z,99067.66
2019-05-20T20:36:01.475Z,99067.06
2019-05-20T20:39:09.582Z,99070.59
2019-05-20T20:42:15.285Z,99072.31
2019-05-20T20:45:21.107Z,99070.08
2019-05-20T20:48:26.772Z,99075.80
2019-05-20T20:51:32.460Z,99077.06
2019-05-20T20:54:38.244Z,99066.95
2019-05-20T20:57:43.893Z,99080.27
2019-05-20T21:00:49.783Z,99084.06
2019-05-20T21:03:55.460Z,99089.08
2019-05-20T21:07:01.198Z,99096.97
2019-05-20T21:10:07.812Z,99098.26
2019-05-20T21:13:15.126Z,99104.64
2019-05-20T21:16:21.038Z,99107.84
2019-05-20T21:19:26.836Z,99113.52
2019-05-20T21:22:32.542Z,99112.71
2019-05-20T21:25:38.471Z,99099.75
2019-05-20T21:28:44.419Z,99120.90
2019-05-20T21:31:50.095Z,99104.25
2019-05-20T21:34:55.811Z,99108.84
2019-05-20T21:38:01.524Z,99113.70
2019-05-20T21:41:07.229Z,99115.70
2019-05-20T21:44:17.272Z,99107.75
2019-05-20T21:47:28.243Z,99108.84
2019-05-20T21:50:33.918Z,99112.13
2019-05-20T21:53:39.626Z,99112.66
2019-05-20T21:56:45.376Z,99120.91
2019-05-20T21:59:51.108Z,99118.57
2019-05-20T22:02:57.406Z,99133.98
2019-05-20T22:06:03.339Z,99125.55
2019-05-20T22:09:09.183Z,99120.54
2019-05-20T22:12:15.018Z,99131.09
2019-05-20T22:15:20.938Z,99124.15
2019-05-20T22:18:27.271Z,99120.55
2019-05-20T22:21:45.108Z,99119.55
2019-05-20T22:24:50.887Z,99130.40
2019-05-20T22:27:56.605Z,99134.48
2019-05-20T22:31:06.803Z,99123.87
2019-05-20T22:34:13.764Z,99119.14
2019-05-20T22:37:19.461Z,99126.73
2019-05-20T22:40:25.142Z,99120.59
2019-05-20T22:43:30.889Z,99123.80
2019-05-20T22:46:36.611Z,99120.94
2019-05-20T22:49:42.287Z,99121.48
2019-05-20T22:52:50.472Z,99110.50
2019-05-20T22:55:56.158Z,99109.47
2019-05-20T22:59:01.854Z,99113.63
2019-05-20T23:02:07.576Z,99114.44
2019-05-20T23:05:13.644Z,99104.13
2019-05-20T23:08:19.331Z,99106.47
2019-05-20T23:11:25.009Z,99113.76
2019-05-20T23:14:33.019Z,99106.19
2019-05-20T23:17:38.688Z,99107.95
2019-05-20T23:20:44.386Z,99106.45
2019-05-20T23:23:50.057Z,99098.48
2019-05-20T23:26:55.725Z,99108.44
2019-05-20T23:30:01.385Z,99115.59
2019-05-20T23:33:09.136Z,99110.75
2019-05-20T23:36:15.030Z,99109.72
2019-05-20T23:39:20.703Z,99112.94
2019-05-20T23:42:26.391Z,99124.23
2019-05-20T23:45:32.113Z,99125.34
2019-05-20T23:48:37.876Z,99120.78
2019-05-20T23:51:43.720Z,99127.41
2019-05-20T23:54:52.188Z,99134.14
2019-05-20T23:57:57.851Z,99123.16
